createdAt,value
2023-02-02T04:56:31.724Z,2.33
2023-02-02T04:59:37.645Z,2.45
2023-02-02T05:02:43.582Z,2.47
2023-02-02T05:05:46.473Z,2.31
2023-02-02T05:08:49.402Z,2.13
2023-02-02T05:11:52.292Z,2.09
2023-02-02T05:14:54.967Z,2.14
2023-02-02T05:17:57.944Z,2.16
2023-02-02T05:21:02.216Z,2.13
2023-02-02T05:24:05.414Z,1.98
2023-02-02T05:27:08.043Z,1.89
2023-02-02T05:30:13.097Z,2.03
2023-02-02T05:33:18.726Z,1.99
2023-02-02T05:36:21.706Z,1.96
2023-02-02T05:39:24.518Z,1.94
2023-02-02T05:42:27.559Z,1.99
2023-02-02T05:45:30.177Z,1.97
2023-02-02T05:48:33.241Z,2.01
2023-02-02T05:51:44.917Z,2.00
2023-02-02T05:54:47.910Z,1.95
2023-02-02T05:57:50.521Z,1.88
2023-02-02T06:00:56.419Z,1.93
2023-02-02T06:03:59.550Z,1.93
2023-02-02T06:07:03.229Z,1.93
2023-02-02T06:10:06.597Z,1.92
2023-02-02T06:13:09.466Z,1.95
2023-02-02T06:16:12.467Z,1.90
2023-02-02T06:19:16.234Z,1.92
2023-02-02T06:22:19.147Z,1.73
2023-02-02T06:25:21.869Z,1.67
2023-02-02T06:28:25.326Z,1.80
2023-02-02T06:31:28.158Z,1.78
2023-02-02T06:34:31.026Z,1.80
2023-02-02T06:37:34.245Z,1.79
2023-02-02T06:40:37.207Z,1.85
2023-02-02T06:43:39.776Z,2.00
2023-02-02T06:46:42.767Z,2.00
2023-02-02T06:49:45.371Z,2.02
2023-02-02T06:52:51.176Z,2.26
2023-02-02T06:55:58.846Z,2.30
2023-02-02T06:59:04.050Z,2.49
2023-02-02T07:02:10.839Z,2.62
2023-02-02T07:05:13.845Z,2.72
2023-02-02T07:08:16.738Z,2.84
2023-02-02T07:11:20.016Z,2.94
2023-02-02T07:14:22.871Z,3.06
2023-02-02T07:17:25.798Z,3.21
2023-02-02T07:20:28.463Z,3.31
2023-02-02T07:23:33.581Z,3.35
2023-02-02T07:26:36.479Z,3.48
2023-02-02T07:29:39.551Z,3.57
2023-02-02T07:32:46.932Z,3.58
2023-02-02T07:35:49.796Z,3.69
2023-02-02T07:38:54.728Z,3.91
2023-02-02T07:41:57.677Z,4.09
2023-02-02T07:45:24.635Z,4.13
2023-02-02T07:48:24.185Z,4.24
2023-02-02T07:51:26.950Z,4.40
2023-02-02T07:54:31.772Z,4.57
2023-02-02T07:57:34.484Z,4.83
2023-02-02T08:00:37.686Z,5.02
2023-02-02T08:03:42.856Z,5.11
2023-02-02T08:06:45.530Z,5.08
2023-02-02T08:09:48.559Z,5.09
2023-02-02T08:12:51.246Z,5.28
2023-02-02T08:16:00.613Z,5.84
2023-02-02T08:19:05.403Z,5.93
2023-02-02T08:22:08.373Z,5.83
2023-02-02T08:25:11.018Z,5.84
2023-02-02T08:28:14.538Z,5.68
2023-02-02T08:31:21.527Z,5.93
2023-02-02T08:34:24.488Z,6.17
2023-02-02T08:37:27.434Z,6.27
2023-02-02T08:40:30.483Z,6.21
2023-02-02T08:43:33.203Z,6.46
2023-02-02T08:46:36.337Z,6.37
2023-02-02T08:49:38.920Z,6.57
2023-02-02T08:52:41.808Z,6.37
2023-02-02T08:55:44.413Z,6.37
2023-02-02T08:58:50.317Z,6.00
2023-02-02T09:01:53.385Z,6.27
2023-02-02T09:04:56.612Z,6.20
2023-02-02T09:07:59.787Z,6.28
2023-02-02T09:11:12.012Z,6.12
2023-02-02T09:14:14.946Z,6.08
2023-02-02T09:17:18.030Z,5.97
2023-02-02T09:20:20.801Z,5.87
2023-02-02T09:23:24.031Z,6.08
2023-02-02T09:26:29.141Z,5.98
2023-02-02T09:29:32.000Z,6.02
2023-02-02T09:32:36.936Z,6.00
2023-02-02T09:35:40.241Z,6.04
2023-02-02T09:38:44.309Z,5.85
2023-02-02T09:42:07.030Z,5.85
2023-02-02T09:45:42.197Z,5.93
2023-02-02T09:49:08.280Z,6.11
2023-02-02T09:52:33.947Z,6.01
2023-02-02T09:55:40.103Z,6.07
2023-02-02T09:58:53.114Z,6.15
2023-02-02T10:01:58.787Z,6.61
2023-02-02T10:05:20.003Z,6.85
2023-02-02T10:08:35.390Z,6.59
2023-02-02T10:11:49.532Z,6.48
2023-02-02T10:15:32.638Z,6.27
2023-02-02T10:18:38.497Z,6.41
2023-02-02T10:21:46.508Z,6.32
2023-02-02T10:24:49.741Z,6.27
2023-02-02T10:28:06.308Z,6.30
2023-02-02T10:31:20.109Z,6.04
2023-02-02T10:35:06.864Z,5.89
2023-02-02T10:38:41.182Z,5.89
2023-02-02T10:42:00.520Z,6.10
2023-02-02T10:45:23.796Z,6.09
2023-02-02T10:48:35.843Z,6.08
2023-02-02T10:51:41.286Z,6.18
2023-02-02T10:55:04.490Z,6.25
2023-02-02T10:58:20.997Z,6.30
2023-02-02T11:01:24.006Z,6.42
2023-02-02T11:04:48.038Z,6.30
2023-02-02T11:07:54.511Z,6.46
2023-02-02T11:11:08.751Z,6.61
2023-02-02T11:14:18.879Z,6.51
2023-02-02T11:17:24.485Z,6.77
2023-02-02T11:20:38.848Z,6.84
2023-02-02T11:23:52.223Z,6.98
2023-02-02T11:27:02.023Z,7.22
2023-02-02T11:30:35.917Z,7.31
2023-02-02T11:33:38.685Z,7.25
2023-02-02T11:37:04.461Z,7.49
2023-02-02T11:40:28.770Z,7.80
2023-02-02T11:43:41.106Z,7.91
2023-02-02T11:46:44.085Z,7.80
2023-02-02T11:49:48.019Z,7.77
2023-02-02T11:52:53.244Z,7.53
2023-02-02T11:55:59.995Z,7.28
2023-02-02T11:59:04.266Z,7.21
2023-02-02T12:02:14.074Z,6.92
2023-02-02T12:05:19.942Z,6.68
2023-02-02T12:08:23.097Z,6.49
2023-02-02T12:11:47.714Z,6.42
2023-02-02T12:15:02.635Z,6.36
2023-02-02T12:18:30.451Z,6.30
2023-02-02T12:21:33.086Z,6.22
2023-02-02T12:24:46.424Z,6.31
2023-02-02T12:28:04.078Z,6.26
2023-02-02T12:31:38.002Z,6.28
2023-02-02T12:34:40.618Z,6.21
2023-02-02T12:38:08.313Z,6.23
2023-02-02T12:41:32.431Z,6.10
2023-02-02T12:44:51.255Z,6.08
2023-02-02T12:48:21.334Z,6.07
2023-02-02T12:51:41.137Z,5.97
2023-02-02T12:54:49.326Z,5.91
2023-02-02T12:58:23.953Z,5.89
2023-02-02T13:01:52.219Z,5.86
2023-02-02T13:05:10.368Z,5.76
2023-02-02T13:08:20.250Z,5.84
2023-02-02T13:11:32.951Z,5.81
2023-02-02T13:14:47.470Z,5.80
2023-02-02T13:18:03.927Z,5.78
2023-02-02T13:21:15.241Z,5.80
2023-02-02T13:24:24.314Z,5.76
2023-02-02T13:27:29.090Z,5.78
2023-02-02T13:30:37.891Z,5.78
2023-02-02T13:33:42.837Z,5.80
2023-02-02T13:36:52.625Z,5.83
2023-02-02T13:40:06.204Z,5.89
2023-02-02T13:43:44.642Z,5.93
2023-02-02T13:46:57.334Z,5.99
2023-02-02T13:50:07.693Z,5.87
2023-02-02T13:53:36.603Z,5.89
2023-02-02T13:57:03.549Z,5.96
2023-02-02T14:00:15.367Z,6.07
2023-02-02T14:03:40.486Z,6.20
2023-02-02T14:07:05.046Z,6.29
2023-02-02T14:10:28.187Z,6.22
2023-02-02T14:14:03.715Z,6.19
2023-02-02T14:17:19.390Z,6.23
2023-02-02T14:20:42.580Z,6.13
2023-02-02T14:23:53.157Z,6.05
2023-02-02T14:27:07.844Z,6.01
2023-02-02T14:30:22.044Z,5.84
2023-02-02T14:33:37.772Z,5.83
2023-02-02T14:36:53.747Z,5.86
2023-02-02T14:40:06.160Z,5.77
2023-02-02T14:43:44.588Z,5.79
2023-02-02T14:46:49.300Z,5.72
2023-02-02T14:49:58.953Z,5.69
2023-02-02T14:53:33.582Z,5.70
2023-02-02T14:56:49.881Z,5.72
2023-02-02T15:00:00.055Z,5.65
2023-02-02T15:03:34.723Z,5.67
2023-02-02T15:06:43.060Z,5.66
2023-02-02T15:09:46.026Z,5.63
2023-02-02T15:13:05.079Z,5.63
2023-02-02T15:16:23.520Z,5.62
2023-02-02T15:19:33.987Z,5.58
2023-02-02T15:23:07.229Z,5.63
2023-02-02T15:26:24.948Z,5.52
2023-02-02T15:29:42.870Z,5.45
2023-02-02T15:32:46.758Z,5.51
2023-02-02T15:35:50.783Z,5.45
2023-02-02T15:38:58.554Z,5.28
2023-02-02T15:42:35.734Z,5.31
2023-02-02T15:45:44.972Z,5.33
2023-02-02T15:49:32.741Z,5.36
2023-02-02T15:52:50.261Z,5.42
2023-02-02T15:55:54.767Z,5.25
2023-02-02T15:58:59.730Z,5.16
2023-02-02T16:02:09.763Z,5.10
2023-02-02T16:05:28.226Z,5.05
2023-02-02T16:08:35.138Z,5.00
2023-02-02T16:11:42.458Z,4.84
2023-02-02T16:14:50.825Z,4.80
2023-02-02T16:18:15.706Z,4.67
2023-02-02T16:21:25.429Z,4.72
2023-02-02T16:24:31.649Z,4.64
2023-02-02T16:27:34.811Z,4.67
2023-02-02T16:30:39.595Z,4.71
2023-02-02T16:33:45.167Z,4.76
2023-02-02T16:37:08.035Z,4.73
2023-02-02T16:40:30.549Z,4.71
2023-02-02T16:43:34.729Z,4.58
2023-02-02T16:46:47.867Z,4.53
2023-02-02T16:49:52.223Z,4.41
2023-02-02T16:53:05.977Z,4.39
2023-02-02T16:56:10.444Z,4.50
2023-02-02T16:59:29.737Z,4.50
